createdAt,value
2018-07-20T00:00:55.974Z,33.9
2018-07-20T00:01:58.136Z,33.8
2018-07-20T00:03:00.293Z,33.9
2018-07-20T00:04:02.738Z,34
2018-07-20T00:05:04.917Z,33.9
2018-07-20T00:06:07.069Z,33.9
2018-07-20T00:07:09.525Z,34
2018-07-20T00:08:12.022Z,33.8
2018-07-20T00:09:14.120Z,34
2018-07-20T00:10:16.557Z,34
2018-07-20T00:11:18.746Z,33.9
2018-07-20T00:12:20.942Z,34
2018-07-20T00:13:22.855Z,34
2018-07-20T00:14:25.004Z,33.9
2018-07-20T00:15:27.455Z,33.9
2018-07-20T00:16:29.628Z,33.9
2018-07-20T00:17:31.785Z,34
2018-07-20T00:18:33.946Z,34
2018-07-20T00:19:36.111Z,34
2018-07-20T00:20:38.561Z,34
2018-07-20T00:21:40.737Z,34.1
2018-07-20T00:22:42.926Z,34
2018-07-20T00:23:45.101Z,33.8
2018-07-20T00:24:47.556Z,34
2018-07-20T00:25:50.017Z,33.9
2018-07-20T00:26:52.180Z,34
2018-07-20T00:27:54.070Z,34
2018-07-20T00:28:56.516Z,34
2018-07-20T00:29:58.443Z,34
2018-07-20T00:31:00.345Z,34
2018-07-20T00:32:02.269Z,34.1
2018-07-20T00:33:04.149Z,34
2018-07-20T00:34:06.317Z,34
2018-07-20T00:35:08.227Z,34.1
2018-07-20T00:36:10.415Z,34.1
2018-07-20T00:37:12.558Z,34
2018-07-20T00:38:15.008Z,34
2018-07-20T00:39:17.455Z,34
2018-07-20T00:40:19.935Z,34
2018-07-20T00:41:22.377Z,34.1
2018-07-20T00:42:24.276Z,34
2018-07-20T00:43:25.959Z,34
2018-07-20T00:44:28.407Z,33.9
2018-07-20T00:45:30.593Z,34
2018-07-20T00:46:32.513Z,34.1
2018-07-20T00:47:34.955Z,33.9
2018-07-20T00:48:37.137Z,34.1
2018-07-20T00:49:39.577Z,34.1
2018-07-20T00:50:42.020Z,34
2018-07-20T00:51:44.182Z,33.9
2018-07-20T00:52:46.626Z,34
2018-07-20T00:53:48.807Z,34
2018-07-20T00:54:50.703Z,33.9
2018-07-20T00:55:52.874Z,34
2018-07-20T00:56:55.317Z,34
2018-07-20T00:57:57.766Z,33.9
2018-07-20T00:58:59.914Z,34
2018-07-20T01:00:02.378Z,34
2018-07-20T01:01:04.821Z,34
2018-07-20T01:02:06.998Z,34.2
2018-07-20T01:03:09.447Z,34.1
2018-07-20T01:04:11.900Z,34.2
2018-07-20T01:05:14.346Z,34
2018-07-20T01:06:15.977Z,34
2018-07-20T01:07:18.424Z,34
2018-07-20T01:08:20.568Z,34.1
2018-07-20T01:09:22.708Z,34.1
2018-07-20T01:10:25.150Z,34.1
2018-07-20T01:11:27.322Z,34.1
2018-07-20T01:12:29.497Z,34.1
2018-07-20T01:13:31.426Z,34
2018-07-20T01:14:33.596Z,34.1
2018-07-20T01:15:35.247Z,34.1
2018-07-20T01:16:37.150Z,34.1
2018-07-20T01:17:39.590Z,34.1
2018-07-20T01:18:41.779Z,34
2018-07-20T01:19:43.939Z,34.1
2018-07-20T01:20:46.136Z,34.1
2018-07-20T01:21:48.315Z,34.2
2018-07-20T01:22:50.770Z,34.1
2018-07-20T01:23:53.215Z,34.1
2018-07-20T01:24:55.110Z,34.2
2018-07-20T01:25:56.986Z,34.2
2018-07-20T01:26:58.627Z,34.2
2018-07-20T01:28:00.798Z,34.1
2018-07-20T01:29:03.239Z,34.2
2018-07-20T01:30:05.696Z,34.1
2018-07-20T01:31:07.631Z,34.2
2018-07-20T01:32:09.818Z,34.2
2018-07-20T01:33:11.988Z,34.2
2018-07-20T01:34:14.437Z,34.1
2018-07-20T01:35:16.354Z,34.1
2018-07-20T01:36:18.810Z,34.2
2018-07-20T01:37:20.987Z,34.2
2018-07-20T01:38:23.428Z,34.2
2018-07-20T01:39:25.867Z,34.1
2018-07-20T01:40:27.481Z,34.3
2018-07-20T01:41:29.646Z,34.1
2018-07-20T01:42:32.087Z,34.1
2018-07-20T01:43:34.256Z,34.2
2018-07-20T01:44:35.874Z,34.2
2018-07-20T01:45:37.793Z,34.2
2018-07-20T01:46:40.244Z,34.1
2018-07-20T01:47:42.693Z,34.2
2018-07-20T01:48:44.866Z,34.1
2018-07-20T01:49:47.030Z,34.2
2018-07-20T01:50:49.200Z,34.1
2018-07-20T01:51:51.384Z,34.2
2018-07-20T01:52:53.556Z,34
2018-07-20T01:53:55.991Z,34.2
2018-07-20T01:54:58.439Z,34.2
2018-07-20T01:56:00.041Z,34.1
2018-07-20T01:57:02.185Z,34.2
2018-07-20T01:58:04.625Z,34.1
2018-07-20T01:59:07.073Z,34.1
2018-07-20T02:00:09.250Z,34.1
2018-07-20T02:01:11.697Z,34.3
2018-07-20T02:02:14.152Z,34.2
2018-07-20T02:03:15.509Z,34.1
2018-07-20T02:04:17.692Z,34.2
2018-07-20T02:05:19.834Z,34.2
2018-07-20T02:06:22.292Z,34.2
2018-07-20T02:07:24.459Z,34.1
2018-07-20T02:08:26.652Z,34.3
2018-07-20T02:09:28.536Z,34.1
2018-07-20T02:10:30.989Z,34.2
2018-07-20T02:11:33.134Z,34.1
2018-07-20T02:12:35.316Z,34.1
2018-07-20T02:13:37.769Z,34.1
2018-07-20T02:14:39.966Z,34.3
2018-07-20T02:15:41.848Z,34.1
2018-07-20T02:16:43.746Z,34.2
2018-07-20T02:17:45.637Z,34.2
2018-07-20T02:18:47.553Z,34.1
2018-07-20T02:19:49.999Z,34.2
2018-07-20T02:20:52.446Z,34.2
2018-07-20T02:21:54.904Z,34.2
2018-07-20T02:22:57.096Z,34.2
2018-07-20T02:23:58.984Z,34.2
2018-07-20T02:25:01.425Z,34.1
2018-07-20T02:26:03.602Z,34.2
2018-07-20T02:27:05.757Z,34.3
2018-07-20T02:28:07.943Z,34.1
2018-07-20T02:29:10.121Z,34.2
2018-07-20T02:30:12.566Z,34.3
2018-07-20T02:31:15.012Z,34.2
2018-07-20T02:32:17.190Z,34.1
2018-07-20T02:33:19.374Z,34.1
2018-07-20T02:34:21.237Z,34.2
2018-07-20T02:35:23.692Z,34.2
2018-07-20T02:36:25.884Z,34.1
2018-07-20T02:37:28.230Z,34.2
2018-07-20T02:38:30.666Z,34.2
2018-07-20T02:39:32.837Z,34.1
2018-07-20T02:40:35.288Z,34.1
2018-07-20T02:41:37.475Z,34.2
2018-07-20T02:42:39.920Z,34.3
2018-07-20T02:43:42.376Z,34.1
2018-07-20T02:44:44.827Z,34.1
2018-07-20T02:45:46.996Z,34.3
2018-07-20T02:46:48.915Z,34.1
2018-07-20T02:47:51.059Z,34.2
2018-07-20T02:48:52.937Z,34.2
2018-07-20T02:49:55.101Z,34
2018-07-20T02:50:56.748Z,34.1
2018-07-20T02:51:58.946Z,34.2
2018-07-20T02:53:01.154Z,34.2
2018-07-20T02:54:03.339Z,34
2018-07-20T02:55:05.513Z,34.3
2018-07-20T02:56:07.685Z,34.2
2018-07-20T02:57:10.149Z,34.2
2018-07-20T02:58:12.591Z,34.1
2018-07-20T02:59:14.762Z,34.1
2018-07-20T03:00:16.925Z,34.1
2018-07-20T03:01:19.109Z,34.2
2018-07-20T03:02:21.572Z,34.1
2018-07-20T03:03:24.014Z,34.3
2018-07-20T03:04:26.199Z,34
2018-07-20T03:05:28.356Z,34.1
2018-07-20T03:06:30.528Z,34.1
2018-07-20T03:07:32.699Z,34.1
2018-07-20T03:08:35.143Z,34.1
2018-07-20T03:09:37.590Z,34.2
2018-07-20T03:10:40.041Z,34.1
2018-07-20T03:11:42.485Z,34.2
2018-07-20T03:12:44.644Z,34.1
2018-07-20T03:13:46.826Z,34
2018-07-20T03:14:48.720Z,34
2018-07-20T03:15:50.908Z,34.1
2018-07-20T03:16:53.073Z,34
2018-07-20T03:17:55.533Z,34
2018-07-20T03:18:57.691Z,33.9
2018-07-20T03:20:00.135Z,33.9
2018-07-20T03:21:02.468Z,33.9
2018-07-20T03:22:05.263Z,34
2018-07-20T03:23:07.179Z,34
2018-07-20T03:24:09.371Z,33.9
2018-07-20T03:25:11.539Z,34
2018-07-20T03:26:13.717Z,34
2018-07-20T03:27:15.627Z,33.9
2018-07-20T03:28:17.780Z,34
2018-07-20T03:29:19.948Z,34
2018-07-20T03:30:22.125Z,33.8
2018-07-20T03:31:23.997Z,33.9
2018-07-20T03:32:26.450Z,33.9
2018-07-20T03:33:28.906Z,33.9
2018-07-20T03:34:31.098Z,33.9
2018-07-20T03:35:33.247Z,33.9
2018-07-20T03:36:35.399Z,33.9
2018-07-20T03:37:37.297Z,34
2018-07-20T03:38:39.473Z,33.8
2018-07-20T03:39:41.377Z,33.9
2018-07-20T03:40:43.830Z,33.9
2018-07-20T03:41:46.268Z,33.8
2018-07-20T03:42:48.717Z,33.9
2018-07-20T03:43:50.608Z,34
2018-07-20T03:44:52.536Z,33.9
2018-07-20T03:45:54.978Z,33.9
2018-07-20T03:46:57.421Z,33.9
2018-07-20T03:47:59.868Z,33.9
2018-07-20T03:49:01.850Z,33.9
2018-07-20T03:50:04.848Z,33.8
2018-07-20T03:51:07.011Z,33.8
2018-07-20T03:52:08.961Z,33.8
2018-07-20T03:53:11.202Z,33.8
2018-07-20T03:54:13.660Z,33.9
2018-07-20T03:55:16.121Z,33.7
2018-07-20T03:56:18.287Z,33.9
2018-07-20T03:57:20.499Z,33.8
2018-07-20T03:58:22.943Z,33.8
2018-07-20T03:59:25.387Z,33.9
2018-07-20T04:00:27.565Z,33.9
2018-07-20T04:01:29.180Z,33.9
2018-07-20T04:02:31.786Z,33.9
2018-07-20T04:03:34.152Z,33.8
2018-07-20T04:04:36.600Z,33.8
2018-07-20T04:05:39.066Z,33.8
2018-07-20T04:06:41.248Z,33.9
2018-07-20T04:07:43.165Z,33.9
2018-07-20T04:08:45.353Z,33.8
2018-07-20T04:09:47.324Z,33.8
2018-07-20T04:10:49.509Z,33.9
2018-07-20T04:11:51.957Z,33.7
2018-07-20T04:12:54.406Z,33.8
2018-07-20T04:13:56.319Z,33.7
2018-07-20T04:14:58.508Z,33.9
2018-07-20T04:16:00.956Z,33.8
2018-07-20T04:17:03.130Z,33.8
2018-07-20T04:18:05.301Z,33.7
2018-07-20T04:19:07.762Z,33.7
2018-07-20T04:20:09.657Z,33.8
2018-07-20T04:21:11.814Z,33.8
2018-07-20T04:22:13.693Z,33.9
2018-07-20T04:23:16.145Z,33.8
2018-07-20T04:24:18.321Z,33.8
2018-07-20T04:25:20.777Z,33.7
2018-07-20T04:26:22.675Z,33.8
2018-07-20T04:27:24.863Z,33.7
2018-07-20T04:28:27.044Z,33.8
2018-07-20T04:29:29.493Z,33.7
2018-07-20T04:30:31.937Z,33.6
2018-07-20T04:31:33.859Z,33.7
2018-07-20T04:32:36.055Z,33.7
2018-07-20T04:33:38.238Z,33.7
2018-07-20T04:34:40.416Z,33.8
2018-07-20T04:35:42.056Z,33.6
2018-07-20T04:36:44.229Z,33.8
2018-07-20T04:37:46.414Z,33.8
2018-07-20T04:38:48.866Z,33.7
2018-07-20T04:39:51.315Z,33.7
2018-07-20T04:40:53.756Z,33.8
2018-07-20T04:41:56.195Z,33.7
2018-07-20T04:42:57.815Z,33.8
2018-07-20T04:43:59.832Z,33.6
2018-07-20T04:45:01.768Z,33.7
2018-07-20T04:46:03.947Z,33.7
2018-07-20T04:47:06.140Z,33.7
2018-07-20T04:48:08.576Z,33.7
2018-07-20T04:49:11.016Z,33.8
2018-07-20T04:50:13.470Z,33.7
2018-07-20T04:51:15.929Z,33.7
2018-07-20T04:52:18.367Z,33.8
2018-07-20T04:53:20.823Z,33.7
2018-07-20T04:54:22.712Z,33.7
2018-07-20T04:55:25.156Z,33.8
2018-07-20T04:56:27.327Z,33.8
2018-07-20T04:57:29.770Z,33.7
2018-07-20T04:58:32.215Z,33.6
2018-07-20T04:59:34.414Z,33.8
2018-07-20T05:00:36.858Z,33.8
2018-07-20T05:01:39.046Z,33.8
2018-07-20T05:02:41.490Z,33.7
2018-07-20T05:03:43.805Z,33.6
2018-07-20T05:04:46.367Z,33.7
2018-07-20T05:05:48.067Z,33.7
2018-07-20T05:06:50.660Z,33.8
2018-07-20T05:07:52.549Z,33.8
2018-07-20T05:08:54.733Z,33.7
2018-07-20T05:09:56.642Z,33.7
2018-07-20T05:10:58.817Z,33.7
2018-07-20T05:12:01.002Z,33.7
2018-07-20T05:13:03.450Z,33.8
2018-07-20T05:14:05.899Z,33.8
2018-07-20T05:15:08.086Z,33.7
2018-07-20T05:16:10.271Z,33.6
2018-07-20T05:17:12.446Z,33.7
2018-07-20T05:18:14.358Z,33.6
2018-07-20T05:19:16.575Z,33.7
2018-07-20T05:20:18.733Z,33.7
2018-07-20T05:21:21.180Z,33.7
2018-07-20T05:22:23.632Z,33.7
2018-07-20T05:23:26.077Z,33.7
2018-07-20T05:24:27.973Z,33.7
2018-07-20T05:25:29.580Z,33.7
2018-07-20T05:26:31.486Z,33.6
2018-07-20T05:27:33.930Z,33.8
2018-07-20T05:28:35.808Z,33.6
2018-07-20T05:29:37.987Z,33.7
2018-07-20T05:30:40.148Z,33.8
2018-07-20T05:31:42.052Z,33.6
2018-07-20T05:32:44.494Z,33.5
2018-07-20T05:33:46.940Z,33.7
2018-07-20T05:34:49.400Z,33.6
2018-07-20T05:35:51.574Z,33.8
2018-07-20T05:36:54.036Z,33.8
2018-07-20T05:37:56.477Z,33.7
2018-07-20T05:38:58.918Z,33.6
2018-07-20T05:40:01.367Z,33.6
2018-07-20T05:41:03.818Z,33.6
2018-07-20T05:42:06.002Z,33.7
2018-07-20T05:43:08.159Z,33.6
2018-07-20T05:44:10.074Z,33.6
2018-07-20T05:45:11.957Z,33.6
2018-07-20T05:46:13.840Z,33.7
2018-07-20T05:47:16.024Z,33.6
2018-07-20T05:48:17.934Z,33.6
2018-07-20T05:49:20.440Z,33.7
2018-07-20T05:50:22.601Z,33.7
2018-07-20T05:51:24.750Z,33.7
2018-07-20T05:52:26.367Z,33.6
2018-07-20T05:53:28.993Z,33.6
2018-07-20T05:54:31.367Z,33.7
2018-07-20T05:55:33.831Z,33.6
2018-07-20T05:56:36.283Z,33.6
2018-07-20T05:57:38.743Z,33.6
2018-07-20T05:58:41.195Z,33.6
2018-07-20T05:59:43.642Z,33.6
2018-07-20T06:00:45.820Z,33.6
2018-07-20T06:01:48.267Z,33.6
2018-07-20T06:02:50.728Z,33.6
2018-07-20T06:03:52.652Z,33.5
2018-07-20T06:04:55.105Z,33.6
2018-07-20T06:05:57.265Z,33.6
2018-07-20T06:06:59.714Z,33.7
2018-07-20T06:08:01.889Z,33.6
2018-07-20T06:09:04.062Z,33.5
2018-07-20T06:10:06.513Z,33.7
2018-07-20T06:11:08.967Z,33.6
2018-07-20T06:12:11.144Z,33.7
2018-07-20T06:13:13.606Z,33.7
2018-07-20T06:14:16.306Z,33.6
2018-07-20T06:15:19.186Z,33.6
2018-07-20T06:16:21.633Z,33.7
2018-07-20T06:17:24.083Z,33.6
2018-07-20T06:18:26.517Z,33.6
2018-07-20T06:19:28.956Z,33.6
2018-07-20T06:20:30.839Z,33.7
2018-07-20T06:21:33.007Z,33.6
2018-07-20T06:22:35.460Z,33.7
2018-07-20T06:23:37.747Z,33.7
2018-07-20T06:24:39.759Z,33.7
2018-07-20T06:25:42.211Z,33.7
2018-07-20T06:26:44.645Z,33.5
2018-07-20T06:27:46.830Z,33.7
2018-07-20T06:28:48.997Z,33.6
2018-07-20T06:29:51.143Z,33.8
2018-07-20T06:30:53.317Z,33.7
2018-07-20T06:31:54.951Z,33.5
2018-07-20T06:32:57.397Z,33.6
2018-07-20T06:33:59.868Z,33.7
2018-07-20T06:35:02.305Z,33.7
2018-07-20T06:36:04.478Z,33.8
2018-07-20T06:37:06.093Z,33.7
2018-07-20T06:38:07.735Z,33.6
2018-07-20T06:39:09.923Z,33.7
2018-07-20T06:40:12.100Z,33.8
2018-07-20T06:41:14.548Z,33.8
2018-07-20T06:42:17.009Z,33.7
2018-07-20T06:43:19.188Z,33.7
2018-07-20T06:44:21.655Z,33.7
2018-07-20T06:45:23.842Z,33.6
2018-07-20T06:46:26.291Z,33.7
2018-07-20T06:47:28.180Z,33.7
2018-07-20T06:48:30.633Z,33.7
2018-07-20T06:49:33.083Z,33.7
2018-07-20T06:50:35.268Z,33.8
2018-07-20T06:51:37.718Z,33.7
2018-07-20T06:52:40.157Z,33.6
2018-07-20T06:53:42.325Z,33.7
2018-07-20T06:54:44.504Z,33.7
2018-07-20T06:55:46.459Z,33.7
2018-07-20T06:56:48.984Z,33.7
2018-07-20T06:57:51.129Z,33.7
2018-07-20T06:58:53.316Z,33.5
2018-07-20T06:59:55.505Z,33.7
2018-07-20T07:00:57.684Z,33.7
2018-07-20T07:01:59.871Z,33.6
2018-07-20T07:03:02.052Z,33.8
2018-07-20T07:04:04.226Z,33.6
2018-07-20T07:05:06.392Z,33.7
2018-07-20T07:06:08.554Z,33.6
2018-07-20T07:07:10.708Z,33.6
2018-07-20T07:08:12.888Z,33.5
2018-07-20T07:09:15.078Z,33.7
2018-07-20T07:10:17.532Z,33.6
2018-07-20T07:11:19.984Z,33.6
2018-07-20T07:12:22.444Z,33.7
2018-07-20T07:13:24.357Z,33.6
2018-07-20T07:14:26.496Z,33.7
2018-07-20T07:15:28.957Z,33.5
2018-07-20T07:16:31.152Z,33.6
2018-07-20T07:17:33.061Z,33.7
2018-07-20T07:18:35.240Z,33.7
2018-07-20T07:19:37.420Z,33.6
2018-07-20T07:20:39.598Z,33.6
2018-07-20T07:21:42.057Z,33.5
2018-07-20T07:22:43.986Z,33.5
2018-07-20T07:23:46.594Z,33.6
2018-07-20T07:24:49.279Z,33.6
2018-07-20T07:25:51.761Z,33.6
2018-07-20T07:26:54.096Z,33.5
2018-07-20T07:27:56.276Z,33.5
2018-07-20T07:28:58.189Z,33.5
2018-07-20T07:30:00.627Z,33.5
2018-07-20T07:31:03.097Z,33.5
2018-07-20T07:32:05.536Z,33.7
2018-07-20T07:33:07.695Z,33.5
2018-07-20T07:34:10.143Z,33.6
2018-07-20T07:35:12.323Z,33.5
2018-07-20T07:36:14.766Z,33.6
2018-07-20T07:37:17.220Z,33.6
2018-07-20T07:38:19.679Z,33.6
2018-07-20T07:39:22.135Z,33.6
2018-07-20T07:40:24.283Z,33.6
2018-07-20T07:41:26.471Z,33.6
2018-07-20T07:42:28.375Z,33.6
2018-07-20T07:43:30.549Z,33.6
2018-07-20T07:44:32.738Z,33.6
2018-07-20T07:45:35.173Z,33.6
2018-07-20T07:46:37.652Z,33.6
2018-07-20T07:47:39.837Z,33.6
2018-07-20T07:48:41.739Z,33.5
2018-07-20T07:49:44.196Z,33.5
2018-07-20T07:50:46.389Z,33.6
2018-07-20T07:51:48.557Z,33.4
2018-07-20T07:52:50.447Z,33.5
2018-07-20T07:53:52.582Z,33.6
2018-07-20T07:54:54.274Z,33.6
2018-07-20T07:55:56.784Z,33.5
2018-07-20T07:56:58.944Z,33.5
2018-07-20T07:58:01.131Z,33.5
2018-07-20T07:59:03.579Z,33.6
2018-07-20T08:00:05.486Z,33.6
2018-07-20T08:01:07.625Z,33.5
2018-07-20T08:02:10.078Z,33.6
2018-07-20T08:03:12.703Z,33.5
2018-07-20T08:04:15.655Z,33.5
2018-07-20T08:05:18.133Z,33.6
2018-07-20T08:06:20.307Z,33.5
2018-07-20T08:07:22.497Z,33.6
2018-07-20T08:08:24.660Z,33.6
2018-07-20T08:09:26.859Z,33.6
2018-07-20T08:10:29.037Z,33.5
2018-07-20T08:11:31.487Z,33.5
2018-07-20T08:12:33.942Z,33.5
2018-07-20T08:13:36.400Z,33.5
2018-07-20T08:14:38.558Z,33.6
2018-07-20T08:15:41.044Z,33.5
2018-07-20T08:16:43.318Z,33.6
2018-07-20T08:17:45.763Z,33.6
2018-07-20T08:18:48.207Z,33.5
2018-07-20T08:19:50.375Z,33.6
2018-07-20T08:20:52.276Z,33.5
2018-07-20T08:21:54.425Z,33.6
2018-07-20T08:22:57.072Z,33.5
2018-07-20T08:23:59.572Z,33.5
2018-07-20T08:25:01.728Z,33.6
2018-07-20T08:26:04.175Z,33.5
2018-07-20T08:27:06.354Z,33.5
2018-07-20T08:28:08.797Z,33.6
2018-07-20T08:29:10.976Z,33.5
2018-07-20T08:30:13.159Z,33.6
2018-07-20T08:31:15.063Z,33.5
2018-07-20T08:32:17.512Z,33.5
2018-07-20T08:33:19.397Z,33.6
2018-07-20T08:34:21.612Z,33.5
2018-07-20T08:35:23.796Z,33.5
2018-07-20T08:36:25.982Z,33.6
2018-07-20T08:37:28.152Z,33.6
2018-07-20T08:38:30.607Z,33.7
2018-07-20T08:39:33.054Z,33.6
2018-07-20T08:40:35.212Z,33.6
2018-07-20T08:41:37.657Z,33.5
2018-07-20T08:42:39.585Z,33.5
2018-07-20T08:43:41.761Z,33.6
2018-07-20T08:44:44.219Z,33.6
2018-07-20T08:45:46.666Z,33.6
2018-07-20T08:46:48.891Z,33.5
2018-07-20T08:47:51.378Z,33.7
2018-07-20T08:48:53.561Z,33.5
2018-07-20T08:49:55.738Z,33.6
2018-07-20T08:50:58.195Z,33.6
2018-07-20T08:52:00.632Z,33.6
2018-07-20T08:53:02.541Z,33.6
2018-07-20T08:54:04.843Z,33.6
2018-07-20T08:55:07.496Z,33.5
2018-07-20T08:56:09.987Z,33.6
2018-07-20T08:57:12.184Z,33.7
2018-07-20T08:58:14.355Z,33.5
2018-07-20T08:59:16.515Z,33.6
2018-07-20T09:00:18.659Z,33.5
2018-07-20T09:01:21.115Z,33.7
2018-07-20T09:02:22.986Z,33.6
2018-07-20T09:03:25.515Z,33.5
2018-07-20T09:04:28.437Z,33.6
2018-07-20T09:05:30.622Z,33.6
2018-07-20T09:06:32.796Z,33.5
2018-07-20T09:07:34.699Z,33.6
2018-07-20T09:08:37.157Z,33.5
2018-07-20T09:09:39.321Z,33.6
2018-07-20T09:10:41.507Z,33.6
2018-07-20T09:11:43.677Z,33.5
2018-07-20T09:12:45.856Z,33.6
2018-07-20T09:13:48.153Z,33.6
2018-07-20T09:14:51.124Z,33.6
2018-07-20T09:15:53.312Z,33.5
2018-07-20T09:16:55.758Z,33.7
2018-07-20T09:17:57.676Z,33.6
2018-07-20T09:18:59.868Z,33.6
2018-07-20T09:20:02.048Z,33.6
2018-07-20T09:21:04.257Z,33.7
2018-07-20T09:22:07.259Z,33.7
2018-07-20T09:23:09.439Z,33.6
2018-07-20T09:24:11.890Z,33.6
2018-07-20T09:25:13.250Z,33.6
2018-07-20T09:26:15.726Z,33.6
2018-07-20T09:27:17.870Z,33.6
2018-07-20T09:28:20.171Z,33.6
2018-07-20T09:29:22.635Z,33.6
2018-07-20T09:30:24.783Z,33.7
2018-07-20T09:31:26.937Z,33.7
2018-07-20T09:32:29.130Z,33.6
2018-07-20T09:33:31.595Z,33.5
2018-07-20T09:34:33.772Z,33.7
2018-07-20T09:35:36.226Z,33.6
2018-07-20T09:36:38.698Z,33.6
2018-07-20T09:37:40.874Z,33.6
2018-07-20T09:38:43.325Z,33.6
2018-07-20T09:39:45.769Z,33.6
2018-07-20T09:40:48.218Z,33.6
2018-07-20T09:41:50.676Z,33.7
2018-07-20T09:42:52.943Z,33.7
2018-07-20T09:43:55.571Z,33.6
2018-07-20T09:44:58.010Z,33.6
2018-07-20T09:46:00.188Z,33.7
2018-07-20T09:47:02.637Z,33.7
2018-07-20T09:48:04.830Z,33.6
2018-07-20T09:49:07.281Z,33.7
2018-07-20T09:50:09.457Z,33.6
2018-07-20T09:51:11.630Z,33.6
2018-07-20T09:52:14.081Z,33.7
2018-07-20T09:53:16.525Z,33.7
2018-07-20T09:54:18.966Z,33.6
2018-07-20T09:55:21.136Z,33.6
2018-07-20T09:56:23.319Z,33.5
2018-07-20T09:57:25.512Z,33.6
2018-07-20T09:58:27.770Z,33.7
2018-07-20T09:59:30.609Z,33.6
2018-07-20T10:00:33.474Z,33.6
2018-07-20T10:01:35.639Z,33.7
2018-07-20T10:02:37.834Z,33.6
2018-07-20T10:03:40.284Z,33.6
2018-07-20T10:04:42.457Z,33.7
2018-07-20T10:05:44.648Z,33.7
2018-07-20T10:06:46.829Z,33.7
2018-07-20T10:07:48.738Z,33.7
2018-07-20T10:08:51.210Z,33.7
2018-07-20T10:09:53.387Z,33.6
2018-07-20T10:10:55.844Z,33.6
2018-07-20T10:11:58.036Z,33.7
2018-07-20T10:13:00.497Z,33.6
2018-07-20T10:14:02.950Z,33.7
2018-07-20T10:15:05.113Z,33.6
2018-07-20T10:16:07.562Z,33.7
2018-07-20T10:17:09.726Z,33.7
2018-07-20T10:18:12.177Z,33.6
2018-07-20T10:19:14.368Z,33.6
2018-07-20T10:20:16.550Z,33.7
2018-07-20T10:21:19.024Z,33.6
2018-07-20T10:22:21.158Z,33.6
2018-07-20T10:23:23.606Z,33.6
2018-07-20T10:24:25.510Z,33.6
2018-07-20T10:25:27.728Z,33.4
2018-07-20T10:26:30.187Z,33.6
2018-07-20T10:27:32.631Z,33.6
2018-07-20T10:28:34.812Z,33.6
2018-07-20T10:29:37.267Z,33.6
2018-07-20T10:30:39.797Z,33.6
2018-07-20T10:31:42.570Z,33.7
2018-07-20T10:32:45.019Z,33.6
2018-07-20T10:33:47.196Z,33.6
2018-07-20T10:34:49.381Z,33.6
2018-07-20T10:35:51.566Z,33.7
2018-07-20T10:36:54.022Z,33.6
2018-07-20T10:37:55.896Z,33.6
2018-07-20T10:38:58.080Z,33.5
2018-07-20T10:40:00.531Z,33.7
2018-07-20T10:41:02.982Z,33.6
2018-07-20T10:42:04.626Z,33.6
2018-07-20T10:43:06.825Z,33.7
2018-07-20T10:44:08.776Z,33.7
2018-07-20T10:45:10.969Z,33.6
2018-07-20T10:46:12.865Z,33.6
2018-07-20T10:47:15.322Z,33.6
2018-07-20T10:48:17.756Z,33.6
2018-07-20T10:49:20.212Z,33.7
2018-07-20T10:50:22.653Z,33.6
2018-07-20T10:51:25.102Z,33.6
2018-07-20T10:52:27.282Z,33.6
2018-07-20T10:53:29.730Z,33.6
2018-07-20T10:54:32.167Z,33.7
2018-07-20T10:55:34.616Z,33.5
2018-07-20T10:56:36.787Z,33.6
2018-07-20T10:57:39.242Z,33.4
2018-07-20T10:58:41.697Z,33.6
2018-07-20T10:59:44.160Z,33.6
2018-07-20T11:00:46.612Z,33.6
2018-07-20T11:01:48.546Z,33.6
2018-07-20T11:02:50.724Z,33.7
2018-07-20T11:03:53.172Z,33.6
2018-07-20T11:04:55.354Z,33.5
2018-07-20T11:05:57.817Z,33.5
2018-07-20T11:07:00.267Z,33.5
2018-07-20T11:08:02.808Z,33.5
2018-07-20T11:09:05.127Z,33.6
2018-07-20T11:10:07.594Z,33.5
2018-07-20T11:11:10.037Z,33.6
2018-07-20T11:12:12.219Z,33.5
2018-07-20T11:13:14.375Z,33.5
2018-07-20T11:14:16.293Z,33.5
2018-07-20T11:15:18.730Z,33.5
2018-07-20T11:16:20.922Z,33.6
2018-07-20T11:17:23.376Z,33.5
2018-07-20T11:18:25.567Z,33.5
2018-07-20T11:19:27.756Z,33.5
2018-07-20T11:20:30.197Z,33.6
2018-07-20T11:21:32.134Z,33.6
2018-07-20T11:22:34.607Z,33.5
2018-07-20T11:23:37.069Z,33.6
2018-07-20T11:24:39.562Z,33.7
2018-07-20T11:25:42.010Z,33.6
2018-07-20T11:26:44.177Z,33.5
2018-07-20T11:27:46.627Z,33.5
2018-07-20T11:28:49.091Z,33.6
2018-07-20T11:29:51.023Z,33.6
2018-07-20T11:30:53.492Z,33.5
2018-07-20T11:31:55.939Z,33.6
2018-07-20T11:32:57.849Z,33.5
2018-07-20T11:33:59.781Z,33.5
2018-07-20T11:35:02.247Z,33.5
2018-07-20T11:36:04.696Z,33.6
2018-07-20T11:37:06.614Z,33.5
2018-07-20T11:38:08.798Z,33.5
2018-07-20T11:39:11.255Z,33.7
2018-07-20T11:40:13.156Z,33.5
2018-07-20T11:41:15.341Z,33.5
2018-07-20T11:42:17.794Z,33.7
2018-07-20T11:43:19.671Z,33.6
2018-07-20T11:44:22.123Z,33.5
2018-07-20T11:45:24.001Z,33.7
2018-07-20T11:46:26.457Z,33.5
2018-07-20T11:47:28.915Z,33.5
2018-07-20T11:48:31.099Z,33.5
2018-07-20T11:49:33.547Z,33.5
2018-07-20T11:50:35.715Z,33.5
2018-07-20T11:51:37.616Z,33.5
2018-07-20T11:52:39.540Z,33.6
2018-07-20T11:53:41.711Z,33.6
2018-07-20T11:54:43.360Z,33.6
2018-07-20T11:55:45.531Z,33.6
2018-07-20T11:56:47.987Z,33.5
2018-07-20T11:57:49.909Z,33.6
2018-07-20T11:58:52.364Z,33.5
2018-07-20T11:59:54.533Z,33.5
2018-07-20T12:00:56.985Z,33.5
2018-07-20T12:01:59.211Z,33.5
2018-07-20T12:03:01.684Z,33.6
2018-07-20T12:04:03.878Z,33.5
2018-07-20T12:05:06.346Z,33.6
2018-07-20T12:06:08.800Z,33.5
2018-07-20T12:07:11.304Z,33.5
2018-07-20T12:08:13.767Z,33.5
2018-07-20T12:09:15.994Z,33.5
2018-07-20T12:10:18.152Z,33.5
2018-07-20T12:11:20.348Z,33.5
2018-07-20T12:12:22.802Z,33.6
2018-07-20T12:13:25.257Z,33.6
2018-07-20T12:14:27.441Z,33.5
2018-07-20T12:15:29.628Z,33.6
2018-07-20T12:16:31.543Z,33.6
2018-07-20T12:17:33.153Z,33.6
2018-07-20T12:18:34.786Z,33.6
2018-07-20T12:19:36.956Z,33.5
2018-07-20T12:20:39.422Z,33.6
2018-07-20T12:21:41.588Z,33.4
2018-07-20T12:22:44.046Z,33.6
2018-07-20T12:23:46.219Z,33.5
2018-07-20T12:24:48.410Z,33.6
2018-07-20T12:25:50.316Z,33.5
2018-07-20T12:26:52.767Z,33.6
2018-07-20T12:27:55.208Z,33.5
2018-07-20T12:28:57.671Z,33.5
2018-07-20T12:29:59.852Z,33.5
2018-07-20T12:31:02.033Z,33.6
2018-07-20T12:32:04.217Z,33.6
2018-07-20T12:33:06.410Z,33.5
2018-07-20T12:34:08.995Z,33.6
2018-07-20T12:35:11.447Z,33.5
2018-07-20T12:36:13.345Z,33.6
2018-07-20T12:37:15.809Z,33.6
2018-07-20T12:38:18.005Z,33.6
2018-07-20T12:39:19.930Z,33.5
2018-07-20T12:40:21.874Z,33.5
2018-07-20T12:41:23.541Z,33.5
2018-07-20T12:42:25.992Z,33.5
2018-07-20T12:43:28.487Z,33.5
2018-07-20T12:44:30.421Z,33.5
2018-07-20T12:45:32.868Z,33.6
2018-07-20T12:46:35.069Z,33.5
2018-07-20T12:47:37.631Z,33.6
2018-07-20T12:48:40.125Z,33.6
2018-07-20T12:49:42.045Z,33.5
2018-07-20T12:50:44.505Z,33.5
2018-07-20T12:51:46.955Z,33.6
2018-07-20T12:52:49.406Z,33.5
2018-07-20T12:53:51.602Z,33.6
2018-07-20T12:54:54.052Z,33.6
2018-07-20T12:55:56.512Z,33.5
2018-07-20T12:56:58.981Z,33.5
2018-07-20T12:58:01.167Z,33.5
2018-07-20T12:59:03.135Z,33.6
2018-07-20T13:00:05.486Z,33.6
2018-07-20T13:01:07.656Z,33.6
2018-07-20T13:02:09.842Z,33.5
2018-07-20T13:03:12.306Z,33.5
2018-07-20T13:04:14.579Z,33.7
2018-07-20T13:05:17.077Z,33.4
2018-07-20T13:06:19.540Z,33.6
2018-07-20T13:07:21.996Z,33.6
2018-07-20T13:08:24.158Z,33.5
2018-07-20T13:09:26.622Z,33.7
2018-07-20T13:10:28.791Z,33.6
2018-07-20T13:11:30.978Z,33.5
2018-07-20T13:12:33.125Z,33.6
2018-07-20T13:13:35.340Z,33.5
2018-07-20T13:14:37.526Z,33.6
2018-07-20T13:15:39.973Z,33.5
2018-07-20T13:16:42.146Z,33.6
2018-07-20T13:17:44.306Z,33.6
2018-07-20T13:18:46.532Z,33.5
2018-07-20T13:19:48.752Z,33.6
2018-07-20T13:20:50.939Z,33.5
2018-07-20T13:21:53.401Z,33.6
2018-07-20T13:22:55.561Z,33.6
2018-07-20T13:23:58.030Z,33.5
2018-07-20T13:25:00.553Z,33.6
2018-07-20T13:26:02.987Z,33.5
2018-07-20T13:27:05.170Z,33.4
2018-07-20T13:28:07.621Z,33.6
2018-07-20T13:29:09.806Z,33.6
2018-07-20T13:30:12.277Z,33.6
2018-07-20T13:31:14.738Z,33.7
2018-07-20T13:32:16.347Z,33.5
2018-07-20T13:33:17.956Z,33.5
2018-07-20T13:34:20.402Z,33.7
2018-07-20T13:35:22.576Z,33.6
2018-07-20T13:36:25.026Z,33.6
2018-07-20T13:37:27.480Z,33.5
2018-07-20T13:38:29.941Z,33.6
2018-07-20T13:39:31.811Z,33.6
2018-07-20T13:40:33.709Z,33.5
2018-07-20T13:41:35.872Z,33.6
2018-07-20T13:42:38.073Z,33.5
2018-07-20T13:43:39.960Z,33.6
2018-07-20T13:44:42.132Z,33.6
2018-07-20T13:45:44.671Z,33.6
2018-07-20T13:46:46.573Z,33.7
2018-07-20T13:47:48.751Z,33.5
2018-07-20T13:48:50.928Z,33.6
2018-07-20T13:49:53.115Z,33.7
2018-07-20T13:50:55.301Z,33.7
2018-07-20T13:51:57.549Z,33.6
2018-07-20T13:53:00.422Z,33.5